Latest Coastal Weather Observations for Warrnambool

IDV60701

Issued at 6:52 pm EDT Thursday 21 October 2021 (issued every 10 minutes, with the page automatically refreshed every 10 minutes)

About coastal observations | Map of coastal stations | Coastal observations for VIC | Marine services | Other Formats
Station Details ID: 090186 Name: WARRNAMBOOL AIRPORT NDB Lat: -38.29 Lon: 142.45 Height: 70.8 m
Data from the previous 72 hours. | See also: Recent months at Warrnambool
Date/Time
EDT
Wind Sea
Height
m
Swell Vis
km
Cloud Weather Temp
°C
Press
MSL
hPa
Rain since
9am
mm
Dir  Spd
kts
Gust
kts
Height
m
Period
s
Dir
21/06:30pm SW 13 17 - - - - 10 Partly cloudy - 16.3 1013.1 0.0
21/06:00pm SSW 11 13 - - - - 10 Mostly cloudy - 17.2 1012.9 0.0
21/05:30pm SSW 11 14 - - - - 10 Partly cloudy - 16.6 1012.4 0.0
21/05:00pm SSW 12 16 - - - - 10 Partly cloudy - 17.9 1012.0 0.0
21/04:30pm SSW 14 17 - - - - 10 Partly cloudy - 17.6 1011.9 0.0
21/04:00pm SSW 13 16 - - - - 10 Partly cloudy - 18.2 1011.7 0.0
21/03:30pm SSW 14 17 - - - - 10 Partly cloudy - 18.6 1011.5 0.0
21/03:00pm SSW 14 17 - - - - 10 Cloudy - 17.8 1011.6 0.0
21/02:30pm SSW 15 17 - - - - 10 Partly cloudy - 18.4 1011.6 0.0
21/02:00pm SSW 14 18 - - - - 10 Partly cloudy - 18.6 1011.5 0.0
21/01:30pm NNW 13 18 - - - - 10 Cloudy - 23.3 1011.3 0.0
21/01:00pm NNW 13 18 - - - - 10 Cloudy - 22.3 1011.3 0.0
21/12:30pm NNW 15 21 - - - - 10 Cloudy - 23.4 1011.2 0.0
21/12:00pm NNW 14 20 - - - - 10 Partly cloudy - 23.7 1011.5 0.0
21/11:30am N 12 18 - - - - 10 - - 23.4 1011.5 0.0
21/11:00am N 12 18 - - - - 10 - - 22.5 1011.6 0.0
21/10:30am N 10 14 - - - - 10 - - 22.0 1011.6 0.0
21/10:00am N 14 20 - - - - 10 - - 20.3 1011.7 0.0
21/09:30am N 13 17 - - - - 10 - - 18.1 1011.5 0.0
21/09:00am N 13 17 - - - - 10 Mostly cloudy - 17.6 1011.4 0.0
21/08:30am NNE 15 19 - - - - 10 - - 17.5 1011.0 0.0
21/08:00am NNE 15 19 - - - - 10 Partly cloudy - 17.4 1010.8 0.0
21/07:30am NNE 14 19 - - - - 10 Cloudy - 17.1 1010.6 0.0
21/07:00am NNE 11 15 - - - - 10 Partly cloudy - 17.0 1010.5 0.0
21/06:30am NNE 11 14 - - - - 9 Cloudy - 16.9 1010.3 0.0
21/06:00am NNE 11 15 - - - - 10 Cloudy - 16.5 1010.1 0.0
21/05:30am NNE 8 11 - - - - 10 Cloudy - 15.2 1010.2 0.0
21/05:00am NNE 11 15 - - - - 10 - - 15.6 1010.3 0.0
21/04:30am NNE 12 16 - - - - 10 Partly cloudy - 15.5 1010.4 0.0
21/04:00am NE 12 16 - - - - 10 Cloudy - 15.7 1010.3 0.0
21/03:30am NNE 15 20 - - - - 10 - - 15.9 1010.5 0.0
21/03:00am NE 12 17 - - - - 10 Mostly cloudy - 15.4 1010.6 0.0
21/02:30am NE 12 16 - - - - 10 - - 15.5 1010.9 0.0
21/02:00am NE 12 16 - - - - 10 - - 15.3 1011.4 0.0
21/01:30am NE 11 16 - - - - 10 - - 15.4 1011.6 0.0
21/01:00am NE 11 15 - - - - 10 - - 14.9 1011.8 0.0
21/12:30am NE 12 16 - - - - 10 - - 14.9 1012.2 0.0
21/12:00am NE 9 11 - - - - 10 Cloudy - 14.9 1012.3 0.0
 
Date/Time
EDT
Wind Sea
Height
m
Swell Vis
km
Cloud Weather Temp
°C
Press
MSL
hPa
Rain since
9am
mm
Dir  Spd
kts
Gust
kts
Height
m
Period
s
Dir
20/11:30pm NE 11 16 - - - - 10 - - 15.2 1012.5 0.0
20/11:29pm NE 11 16 - - - - 10 - - 15.3 1012.4 0.0
20/11:14pm NE 12 15 - - - - 5 - - 15.3 1012.4 0.0
20/11:00pm NE 10 15 - - - - 10 - - 15.2 1012.8 0.0
20/10:30pm NE 10 13 - - - - 10 - - 15.3 1013.2 0.0
20/10:00pm NE 8 11 - - - - 10 - - 15.7 1013.4 0.0
20/09:30pm NE 8 12 - - - - 10 - - 16.1 1013.6 0.0
20/09:00pm NE 9 15 - - - - 10 Cloudy - 16.8 1013.7 0.0
20/08:30pm NE 11 18 - - - - 10 - - 17.3 1013.5 0.0
20/08:00pm ENE 11 17 - - - - 10 - - 17.7 1013.3 0.0
20/07:30pm NE 10 16 - - - - 10 - - 18.2 1013.3 0.0
20/07:00pm ENE 9 13 - - - - 10 - - 19.1 1013.3 0.0
20/06:30pm NE 11 15 - - - - 10 - - 20.3 1013.1 0.0
20/06:00pm NE 13 17 - - - - 10 - - 20.8 1013.1 0.0
20/05:30pm NE 13 19 - - - - 10 - - 21.5 1013.0 0.0
20/05:00pm NE 13 19 - - - - 10 - - 21.8 1013.5 0.0
20/04:30pm NE 14 19 - - - - 10 - - 21.9 1013.8 0.0
20/04:00pm NNE 15 20 - - - - 10 - - 21.7 1014.4 0.0
20/03:30pm NNE 17 23 - - - - 10 - - 21.9 1014.9 0.0
20/03:00pm NE 14 20 - - - - 10 - - 21.9 1015.3 0.0
20/02:30pm NE 15 21 - - - - 10 - - 21.4 1015.8 0.0
20/02:00pm NE 15 21 - - - - 10 - - 21.1 1016.2 0.0
20/01:40pm NE 14 25 - - - - 10 - - 20.5 1016.6 0.0
20/01:30pm NNE 14 20 - - - - 10 - - 20.6 1016.8 0.0
20/01:00pm NE 11 19 - - - - 10 - - 19.4 1017.5 0.0
20/12:30pm NE 12 18 - - - - 10 - - 18.7 1018.5 0.0
20/12:00pm NE 10 14 - - - - 10 - - 17.8 1019.0 0.0
20/11:30am NE 10 15 - - - - 10 - - 16.8 1019.2 0.0
20/11:00am NE 12 18 - - - - 10 Partly cloudy - 16.3 1019.3 0.0
20/10:30am NE 13 19 - - - - 10 Partly cloudy - 14.9 1019.7 0.0
20/10:05am NE 12 19 - - - - 10 Partly cloudy - 14.6 1019.7 0.0
20/10:00am NE 13 20 - - - - 10 Partly cloudy - 14.5 1019.8 0.0
20/09:30am ENE 13 18 - - - - 10 Partly cloudy - 13.3 1020.3 0.0
20/09:00am NE 13 20 - - - - 10 Cloudy - 12.3 1020.1 0.0
20/08:30am ENE 15 23 - - - - 9 Cloudy - 11.6 1020.1 0.0
20/08:17am NE 15 26 - - - - 10 Cloudy - 11.3 1020.1 0.0
20/08:00am NE 14 22 - - - - 9 Cloudy - 11.0 1020.3 0.0
20/07:30am NE 13 20 - - - - 10 Cloudy - 10.8 1020.6 0.0
20/07:00am ENE 11 16 - - - - 9 Cloudy - 10.8 1021.2 0.0
20/06:30am NE 7 11 - - - - 10 Cloudy - 10.6 1021.5 0.0
20/06:00am ENE 8 11 - - - - 10 Cloudy - 10.7 1021.4 0.0
20/05:30am ENE 8 14 - - - - 9 Cloudy - 10.6 1021.8 0.0
20/05:00am ENE 9 14 - - - - 9 Partly cloudy - 10.2 1021.4 0.0
20/04:52am ENE 11 17 - - - - 10 Partly cloudy - 10.1 1021.2 0.0
20/04:30am ENE 12 17 - - - - 10 - - 10.0 1021.0 0.0
20/04:00am ENE 11 15 - - - - 9 Partly cloudy - 10.4 1021.4 0.0
20/03:30am E 9 13 - - - - 10 Cloudy - 10.9 1022.0 0.0
20/03:00am E 7 11 - - - - 9 Cloudy - 10.8 1022.4 0.0
20/02:30am E 5 8 - - - - 8 Cloudy - 10.4 1022.4 0.0
20/02:00am ENE 6 8 - - - - 10 Cloudy - 9.7 1023.1 0.0
20/01:30am ENE 5 7 - - - - 10 Cloudy - 9.0 1023.7 0.0
20/01:09am ENE 6 9 - - - - 8 Partly cloudy - 8.8 1023.7 0.0
20/01:00am ENE 5 8 - - - - 10 Partly cloudy - 8.6 1023.7 0.0
20/12:30am ENE 5 7 - - - - 10 - - 8.8 1024.4 0.0
20/12:00am ENE 4 6 - - - - 10 - - 8.7 1024.5 0.0
 
Date/Time
EDT
Wind Sea
Height
m
Swell Vis
km
Cloud Weather Temp
°C
Press
MSL
hPa
Rain since
9am
mm
Dir  Spd
kts
Gust
kts
Height
m
Period
s
Dir
19/11:30pm E 6 8 - - - - 10 - - 9.1 1024.3 0.0
19/11:00pm E 6 8 - - - - 10 - - 9.5 1024.0 0.0
19/10:30pm E 8 12 - - - - 10 - - 10.3 1024.1 0.0
19/10:00pm E 7 9 - - - - 10 - - 10.5 1024.3 0.0
19/09:30pm ESE 4 5 - - - - 10 Partly cloudy - 9.8 1024.7 0.0
19/09:00pm CALM 0 2 - - - - 8 Mostly cloudy - 10.3 1024.1 0.0
19/08:30pm SE 6 7 - - - - 10 Partly cloudy - 10.4 1023.8 0.0
19/08:00pm SE 8 12 - - - - 10 Partly cloudy - 11.2 1024.1 0.0
19/07:30pm S 10 15 - - - - 10 Partly cloudy - 11.9 1024.4 0.0
19/07:00pm S 12 16 - - - - 9 Partly cloudy - 12.3 1024.2 0.0
19/06:30pm SSE 13 17 - - - - 10 Partly cloudy - 12.5 1024.2 0.0
19/06:00pm SSE 13 16 - - - - 10 Mostly clear - 12.9 1023.9 0.0
19/05:30pm SSE 13 18 - - - - 10 - - 13.5 1023.6 0.0
19/05:00pm SSE 13 18 - - - - 10 - - 13.4 1023.5 0.0
19/04:30pm SSE 12 16 - - - - 10 - - 14.1 1023.7 0.0
19/04:00pm S 13 16 - - - - 10 - - 14.1 1024.0 0.0
19/03:30pm S 13 17 - - - - 10 - - 14.2 1024.2 0.0
19/03:00pm SSE 13 17 - - - - 10 - - 14.1 1024.8 0.0
19/02:30pm SSE 12 16 - - - - 10 - - 14.3 1024.3 0.0
19/02:00pm SSE 12 16 - - - - 10 - - 14.3 1024.5 0.0
19/01:30pm SSE 13 17 - - - - 10 Partly cloudy - 14.3 1024.5 0.0
19/01:00pm SSE 12 17 - - - - 10 Partly cloudy - 14.1 1024.4 0.0
19/12:30pm SE 13 18 - - - - 10 - - 14.0 1024.4 0.0
19/12:00pm SSE 14 17 - - - - 10 Mostly clear - 13.5 1024.7 0.0
19/11:30am SSE 12 16 - - - - 10 Partly cloudy - 13.9 1024.9 0.0
19/11:00am SSE 13 19 - - - - 10 Partly cloudy - 13.3 1024.8 0.0
19/10:30am SE 13 19 - - - - 10 - - 11.6 1024.3 0.0
19/10:00am SE 12 16 - - - - 10 Cloudy - 13.1 1023.9 0.0
19/09:30am ESE 8 13 - - - - 10 Partly cloudy - 11.3 1023.8 0.0
19/09:00am ESE 5 11 - - - - 10 Cloudy Recent precip. 11.0 1023.8 2.0
19/08:56am ESE 4 6 - - - - 10 Partly cloudy - 10.9 1023.7 2.0
19/08:30am ESE 8 11 - - - - 3 Partly cloudy - 9.4 1023.6 1.8
19/08:20am SE 8 11 - - - - 5 Partly cloudy - 9.5 1023.8 1.6
19/08:00am SE 7 9 - - - - 10 Partly cloudy - 10.4 1023.4 1.6
19/07:30am SSE 1 4 - - - - 10 Partly cloudy - 9.5 1023.0 1.6
19/07:00am CALM 0 0 - - - - 10 Partly cloudy - 8.1 1022.6 1.6
19/06:40am ESE 4 6 - - - - 10 Partly cloudy - 8.6 1022.3 1.6
19/06:30am SSE 5 6 - - - - 5 Partly cloudy - 8.2 1022.2 1.6
19/06:24am S 5 6 - - - - 5 Partly cloudy - 7.2 1022.1 1.4
19/06:00am SSW 6 6 - - - - 10 Partly cloudy Recent precip. 7.8 1021.7 1.4
19/05:41am SSW 5 6 - - - - 10 Partly cloudy - 9.0 1021.3 1.4
19/05:30am SSW 6 9 - - - - 5 Partly cloudy - 9.3 1021.2 1.4
19/05:26am SSW 7 9 - - - - 5 Partly cloudy - 9.3 1021.1 1.4
19/05:21am S 6 9 - - - - 10 Partly cloudy - 8.7 1021.1 1.2
19/05:00am S 7 17 - - - - 4 Partly cloudy - 9.2 1021.0 0.8
19/04:30am S 5 6 - - - - 10 Partly cloudy - 7.9 1020.6 0.0
19/04:00am SSW 5 6 - - - - 9 Partly cloudy - 7.4 1020.2 0.0
19/03:30am S 5 7 - - - - 10 Partly cloudy - 6.9 1020.1 0.0
19/03:00am SSW 7 8 - - - - 10 Partly cloudy - 8.0 1020.2 0.0
19/02:30am S 7 8 - - - - 9 - - 7.1 1020.3 0.0
19/02:00am SSW 7 8 - - - - 9 Partly cloudy - 7.5 1020.5 0.0
19/01:42am SSW 7 8 - - - - 10 - - 8.1 1020.5 0.0
19/01:30am SSW 8 9 - - - - 6 Partly cloudy - 8.5 1020.6 0.0
19/01:25am SSW 8 9 - - - - 5 Partly cloudy - 8.7 1020.6 0.0
19/01:00am SSW 8 9 - - - - 9 Partly cloudy - 9.3 1020.5 0.0
19/12:30am SW 7 8 - - - - 10 Partly cloudy - 8.8 1020.2 0.0
19/12:00am SSW 6 8 - - - - 10 Cloudy - 8.7 1020.1 0.0
 
Date/Time
EDT
Wind Sea
Height
m
Swell Vis
km
Cloud Weather Temp
°C
Press
MSL
hPa
Rain since
9am
mm
Dir  Spd
kts
Gust
kts
Height
m
Period
s
Dir
18/11:30pm SW 7 9 - - - - 10 Partly cloudy - 9.1 1020.1 0.0
18/11:00pm SW 10 13 - - - - 10 Partly cloudy - 10.2 1019.9 0.0
18/10:30pm WSW 6 6 - - - - 10 Partly cloudy - 9.4 1019.7 0.0
18/10:00pm SW 7 8 - - - - 9 Partly cloudy - 8.6 1019.5 0.0
18/09:30pm WSW 7 10 - - - - 10 Partly cloudy - 9.4 1019.1 0.0
18/09:00pm WSW 7 9 - - - - 10 Cloudy - 10.0 1018.7 0.0
18/08:30pm WSW 8 9 - - - - 8 Partly cloudy - 10.0 1018.3 0.0
18/08:00pm WSW 9 11 - - - - 10 - - 10.0 1018.0 0.0
18/07:30pm SW 11 15 - - - - 10 Partly cloudy - 11.4 1017.7 0.0
18/07:00pm SW 13 17 - - - - 10 Partly cloudy - 12.4 1017.4 0.0

Other formats

Comma delimited format used in spreadsheet applications
http://www.bom.gov.au/fwo/IDV60701/IDV60701.94837.axf

JavaScript Object Notation format (JSON) in row-major order
http://www.bom.gov.au/fwo/IDV60701/IDV60701.94837.json

Data quality

Most of these data are generated automatically and are frequently updated. Quality checks on data are not normally performed. It is possible for incorrect values to appear. Refer to information at About Latest Weather Observations and please check the disclaimer before using these data.